Time;durP1;ratioP1;P1;durP2;ratioP2;P2;SDS_P1;SDS_P2;PMS_P1;PMS_P2;Temp;Humidity;BMP_temperature;BMP_pressure;BME280_temperature;BME280_humidity;BME280_pressure;Samples;Min_cycle;Max_cycle;Signal;HPM_P1;HPM_P2
2023/02/06 00:04:26;;;;;;;48.67;18.05;;;1.60;99.90;;;;;;15119973;23;20026;-36
2023/02/06 00:10:28;;;;;;;32.38;16.50;;;1.70;99.90;;;;;;15125230;23;20066;-37
2023/02/06 00:16:32;;;;;;;42.15;16.65;;;1.70;99.90;;;;;;15127940;23;20515;-36
2023/02/06 00:22:34;;;;;;;45.67;16.35;;;1.80;99.90;;;;;;15104618;23;20102;-36
2023/02/06 00:28:36;;;;;;;35.38;14.93;;;1.80;99.90;;;;;;15131060;23;20019;-36
2023/02/06 00:34:38;;;;;;;47.45;16.60;;;1.90;99.90;;;;;;15123772;23;20109;-36
2023/02/06 00:40:40;;;;;;;50.10;16.58;;;1.80;99.90;;;;;;15132823;23;20022;-36
2023/02/06 00:46:41;;;;;;;54.08;14.70;;;1.80;99.90;;;;;;15124000;23;20097;-36
2023/02/06 00:52:44;;;;;;;47.45;13.68;;;1.80;99.90;;;;;;15123569;23;20022;-36
2023/02/06 00:58:46;;;;;;;40.05;11.98;;;1.70;99.90;;;;;;15102523;23;20466;-37
2023/02/06 01:04:48;;;;;;;54.72;13.05;;;1.70;99.90;;;;;;15122235;23;20034;-36
2023/02/06 01:10:49;;;;;;;49.90;11.75;;;1.70;99.90;;;;;;15116608;23;20402;-37
2023/02/06 01:16:51;;;;;;;53.47;11.43;;;1.70;99.90;;;;;;15126658;23;20482;-36
2023/02/06 01:22:53;;;;;;;49.50;11.07;;;1.60;99.90;;;;;;15127531;23;20030;-36
2023/02/06 01:28:55;;;;;;;36.53;10.57;;;1.60;99.90;;;;;;15127563;23;20026;-36
2023/02/06 01:34:57;;;;;;;46.17;13.77;;;1.50;99.90;;;;;;15126679;23;20029;-36
2023/02/06 01:41:00;;;;;;;40.58;11.35;;;1.50;99.90;;;;;;15115779;23;20081;-36
2023/02/06 01:47:02;;;;;;;44.53;13.02;;;1.50;99.90;;;;;;15128468;23;20062;-36
2023/02/06 01:53:05;;;;;;;35.72;11.82;;;1.30;99.90;;;;;;15121542;23;20036;-36
2023/02/06 01:59:08;;;;;;;44.63;12.57;;;1.20;99.90;;;;;;15123463;23;20030;-36
2023/02/06 02:05:11;;;;;;;45.55;11.90;;;1.10;99.90;;;;;;15128807;23;20034;-36
2023/02/06 02:11:17;;;;;;;37.67;10.85;;;1.10;99.90;;;;;;15128036;23;20019;-37
2023/02/06 02:18:02;;;;;;;41.83;12.25;;;1.00;99.90;;;;;;15123473;23;20022;-36
2023/02/06 02:24:07;;;;;;;42.25;11.48;;;0.90;99.90;;;;;;15127480;23;20402;-36
2023/02/06 02:30:09;;;;;;;44.65;11.38;;;0.80;99.90;;;;;;15123446;23;20023;-36
2023/02/06 02:36:18;;;;;;;47.60;12.18;;;0.80;99.90;;;;;;15120928;23;20034;-36
2023/02/06 02:42:25;;;;;;;56.70;12.70;;;0.70;99.90;;;;;;15116536;23;20026;-36
2023/02/06 02:48:33;;;;;;;50.13;11.95;;;0.70;99.90;;;;;;15123441;23;20100;-36
2023/02/06 02:54:35;;;;;;;41.58;10.63;;;0.70;99.90;;;;;;15124066;23;20041;-36
2023/02/06 03:01:03;;;;;;;42.00;10.75;;;0.70;99.90;;;;;;15121521;23;20026;-36
2023/02/06 03:07:27;;;;;;;46.95;10.45;;;0.60;99.90;;;;;;15108400;23;20026;-36
2023/02/06 03:13:37;;;;;;;47.50;9.45;;;0.60;99.90;;;;;;15128487;23;20033;-36
2023/02/06 03:19:47;;;;;;;33.88;9.07;;;0.40;99.90;;;;;;15117331;23;20056;-36
2023/02/06 03:25:54;;;;;;;44.35;10.82;;;0.40;99.90;;;;;;15123914;23;20054;-36
2023/02/06 03:32:06;;;;;;;47.95;11.40;;;0.50;99.90;;;;;;15126451;23;20073;-36
2023/02/06 03:38:08;;;;;;;47.80;10.80;;;0.50;99.90;;;;;;15101040;23;20105;-36
2023/02/06 03:44:17;;;;;;;43.40;9.82;;;0.50;99.90;;;;;;15121809;23;20030;-36
2023/02/06 03:50:21;;;;;;;38.03;10.13;;;0.30;99.90;;;;;;15126889;23;20049;-36
2023/02/06 03:56:34;;;;;;;47.20;9.87;;;0.20;99.90;;;;;;15127744;23;20402;-36
2023/02/06 04:02:37;;;;;;;39.70;9.15;;;0.00;99.90;;;;;;15102975;23;20027;-36
2023/02/06 04:08:39;;;;;;;42.53;9.37;;;0.00;99.90;;;;;;15126605;23;20036;-36
2023/02/06 04:14:42;;;;;;;42.70;9.90;;;0.10;99.90;;;;;;15129633;23;20061;-36
2023/02/06 04:20:43;;;;;;;38.30;9.73;;;0.30;99.90;;;;;;15129761;23;20062;-36
2023/02/06 04:26:45;;;;;;;45.92;9.23;;;0.30;99.90;;;;;;15125587;23;20463;-36
2023/02/06 04:32:47;;;;;;;41.85;10.20;;;0.20;99.90;;;;;;15132529;23;20029;-36
2023/02/06 04:38:50;;;;;;;37.55;9.73;;;0.10;99.90;;;;;;15127462;23;20408;-36
2023/02/06 04:44:52;;;;;;;39.10;9.75;;;0.20;99.90;;;;;;15124696;23;20034;-36
2023/02/06 04:50:54;;;;;;;50.45;11.00;;;0.20;99.90;;;;;;15126094;23;20109;-36
2023/02/06 04:56:56;;;;;;;48.22;11.23;;;0.10;99.90;;;;;;15127242;23;20026;-36
2023/02/06 05:02:58;;;;;;;43.85;10.88;;;0.10;99.90;;;;;;15129965;23;20510;-36
2023/02/06 05:09:01;;;;;;;38.00;11.40;;;0.10;99.90;;;;;;15099625;23;20019;-36
2023/02/06 05:15:03;;;;;;;37.88;10.93;;;0.00;99.90;;;;;;15102615;23;20396;-36
2023/02/06 05:21:05;;;;;;;50.10;10.88;;;0.10;99.90;;;;;;15122364;23;20034;-36
2023/02/06 05:27:07;;;;;;;45.92;10.60;;;0.10;99.90;;;;;;15124504;23;20102;-36
2023/02/06 05:33:09;;;;;;;44.95;11.25;;;0.10;99.90;;;;;;15127436;23;20062;-36
2023/02/06 05:39:11;;;;;;;84.18;11.20;;;0.10;99.90;;;;;;15129951;23;20027;-36
2023/02/06 05:45:13;;;;;;;136.63;12.63;;;0.10;99.90;;;;;;15122460;23;20105;-36
2023/02/06 05:51:15;;;;;;;120.53;11.73;;;0.10;99.90;;;;;;15125859;23;20074;-36
2023/02/06 05:57:17;;;;;;;135.18;13.38;;;0.10;99.90;;;;;;15126906;23;20033;-36
2023/02/06 06:03:19;;;;;;;165.90;13.05;;;-0.10;99.90;;;;;;15128872;23;20026;-36
2023/02/06 06:09:21;;;;;;;108.20;11.35;;;-0.10;99.90;;;;;;15126785;23;20022;-36
2023/02/06 06:15:23;;;;;;;151.88;12.27;;;-0.10;99.90;;;;;;15125249;23;20101;-36
2023/02/06 06:21:25;;;;;;;175.60;13.75;;;0.00;99.90;;;;;;15126977;23;20034;-36
2023/02/06 06:27:27;;;;;;;142.10;12.10;;;0.00;99.90;;;;;;15125774;23;20022;-36
2023/02/06 06:33:29;;;;;;;142.57;12.65;;;0.10;99.90;;;;;;15128434;23;20150;-36
2023/02/06 06:39:31;;;;;;;174.63;15.60;;;0.20;99.90;;;;;;15120179;23;20580;-36
2023/02/06 06:45:33;;;;;;;158.13;14.50;;;0.20;99.90;;;;;;15096373;23;20523;-37
2023/02/06 06:51:35;;;;;;;132.88;12.73;;;0.30;99.90;;;;;;15097977;23;20097;-36
2023/02/06 06:57:37;;;;;;;152.80;13.05;;;0.40;99.90;;;;;;15126050;23;20022;-36
2023/02/06 07:03:42;;;;;;;166.55;14.80;;;0.40;99.90;;;;;;15121421;23;20027;-36
2023/02/06 07:09:44;;;;;;;80.97;12.40;;;0.40;99.90;;;;;;15122813;23;20023;-36
2023/02/06 07:15:46;;;;;;;75.43;14.00;;;0.40;99.90;;;;;;15121703;23;20117;-36
2023/02/06 07:21:48;;;;;;;58.30;12.25;;;0.50;99.90;;;;;;15089872;23;20073;-36
2023/02/06 07:27:50;;;;;;;51.40;11.48;;;0.50;99.90;;;;;;15098697;23;20022;-36
2023/02/06 07:33:52;;;;;;;64.05;13.77;;;0.60;99.90;;;;;;15126401;23;20034;-36
2023/02/06 07:39:54;;;;;;;41.97;12.70;;;0.60;99.90;;;;;;15126813;23;20026;-36
2023/02/06 07:46:01;;;;;;;52.33;14.00;;;0.70;99.90;;;;;;15124643;23;20345;-37
2023/02/06 07:52:03;;;;;;;49.30;13.23;;;0.70;99.90;;;;;;15124875;23;20094;-36
2023/02/06 07:58:05;;;;;;;40.72;12.30;;;0.60;99.90;;;;;;15131187;23;20037;-36
2023/02/06 08:04:07;;;;;;;62.95;13.75;;;0.80;99.90;;;;;;15126199;23;20026;-36
2023/02/06 08:10:09;;;;;;;36.75;11.90;;;0.80;99.90;;;;;;15124863;23;20034;-36
2023/02/06 08:16:13;;;;;;;55.45;12.43;;;0.90;99.90;;;;;;15128692;23;20359;-36
2023/02/06 08:22:15;;;;;;;63.15;15.30;;;1.00;99.90;;;;;;15099307;23;20567;-36
2023/02/06 08:28:17;;;;;;;55.00;15.77;;;1.00;99.90;;;;;;15126320;23;20029;-36
2023/02/06 08:34:19;;;;;;;45.65;11.80;;;1.20;99.90;;;;;;15120351;23;20046;-37
2023/02/06 08:40:21;;;;;;;53.63;12.95;;;1.40;99.90;;;;;;15126995;23;20023;-36
2023/02/06 08:46:27;;;;;;;29.00;8.52;;;1.50;99.90;;;;;;15123769;23;20214;-36
2023/02/06 08:52:29;;;;;;;47.30;12.65;;;1.60;99.90;;;;;;15125186;23;20023;-36
2023/02/06 08:58:31;;;;;;;51.63;12.55;;;1.80;99.90;;;;;;15124641;23;20700;-36
2023/02/06 09:04:36;;;;;;;49.70;12.93;;;1.90;99.90;;;;;;15128969;23;20113;-36
2023/02/06 09:10:38;;;;;;;38.35;12.35;;;1.90;99.90;;;;;;15127737;23;20087;-37
2023/02/06 09:16:40;;;;;;;34.80;12.15;;;2.00;99.90;;;;;;15126812;23;20022;-36
2023/02/06 09:22:43;;;;;;;37.70;11.00;;;2.20;99.90;;;;;;15128666;23;20031;-36
2023/02/06 09:28:46;;;;;;;54.50;14.05;;;2.40;99.90;;;;;;15130408;23;20033;-36
2023/02/06 09:34:48;;;;;;;42.20;11.30;;;2.40;99.90;;;;;;15101602;23;20479;-36
2023/02/06 09:40:53;;;;;;;26.40;10.30;;;2.40;99.90;;;;;;15127124;23;20057;-36
2023/02/06 09:47:17;;;;;;;41.05;14.07;;;2.30;99.90;;;;;;15101342;23;20093;-37
2023/02/06 09:53:25;;;;;;;33.17;12.13;;;2.10;99.90;;;;;;15129093;23;20030;-36
2023/02/06 09:59:36;;;;;;;44.08;12.70;;;2.30;99.90;;;;;;15125952;23;20030;-36
2023/02/06 10:05:57;;;;;;;40.40;13.23;;;2.30;99.90;;;;;;15127934;23;20034;-37
2023/02/06 10:12:05;;;;;;;37.42;13.70;;;2.40;99.90;;;;;;15126515;23;20441;-36
2023/02/06 10:18:40;;;;;;;44.75;12.43;;;2.40;99.90;;;;;;15100010;23;20446;-36
2023/02/06 10:25:03;;;;;;;56.40;13.90;;;2.40;99.90;;;;;;15123935;23;20050;-36
2023/02/06 10:31:16;;;;;;;50.63;14.50;;;2.60;99.90;;;;;;15066752;23;20466;-36
2023/02/06 10:37:47;;;;;;;51.80;13.57;;;2.60;99.90;;;;;;15100098;23;20050;-36
2023/02/06 10:43:55;;;;;;;73.80;14.30;;;2.60;99.90;;;;;;15104465;23;20034;-36
2023/02/06 10:50:25;;;;;;;85.15;15.38;;;2.60;99.90;;;;;;15127765;23;20019;-36
2023/02/06 10:56:34;;;;;;;45.08;14.77;;;2.80;99.90;;;;;;15126475;23;20077;-36
2023/02/06 11:03:05;;;;;;;45.42;15.55;;;2.80;99.90;;;;;;15123050;23;20026;-36
2023/02/06 11:09:09;;;;;;;52.08;15.00;;;2.90;99.90;;;;;;15127593;23;20467;-37
2023/02/06 11:15:21;;;;;;;50.80;15.75;;;2.90;99.90;;;;;;15128695;23;20030;-36
2023/02/06 11:21:44;;;;;;;35.30;14.27;;;2.90;99.90;;;;;;15129614;23;20026;-36
2023/02/06 11:27:47;;;;;;;51.72;16.60;;;3.00;99.90;;;;;;15134151;23;20081;-37
2023/02/06 11:33:53;;;;;;;46.20;16.55;;;3.20;99.90;;;;;;15105821;23;20033;-36
2023/02/06 11:40:23;;;;;;;54.92;15.90;;;3.20;99.90;;;;;;15126486;23;20363;-36
2023/02/06 11:46:31;;;;;;;55.40;17.17;;;3.30;99.90;;;;;;15125257;23;20351;-37
2023/02/06 11:52:33;;;;;;;38.35;13.43;;;3.30;99.90;;;;;;15132050;23;20105;-36
2023/02/06 11:58:35;;;;;;;33.53;12.05;;;3.30;99.90;;;;;;15132322;23;20165;-36
2023/02/06 12:04:39;;;;;;;56.35;17.52;;;3.60;99.90;;;;;;15128036;23;20037;-37
2023/02/06 12:11:07;;;;;;;51.30;16.77;;;3.50;99.90;;;;;;15131046;23;20489;-36
2023/02/06 12:17:31;;;;;;;41.47;15.18;;;3.70;99.90;;;;;;15125931;23;20105;-37
2023/02/06 12:24:04;;;;;;;31.97;11.40;;;3.80;99.90;;;;;;15127559;23;20118;-36
2023/02/06 12:30:29;;;;;;;49.25;15.20;;;3.90;99.90;;;;;;15126607;23;20034;-36
2023/02/06 12:36:36;;;;;;;51.45;15.48;;;3.80;99.90;;;;;;15085343;23;20034;-37
2023/02/06 12:42:42;;;;;;;38.30;12.73;;;3.80;99.90;;;;;;15127983;23;20061;-37
2023/02/06 12:49:02;;;;;;;28.75;13.13;;;3.90;99.90;;;;;;15129207;23;20022;-36
2023/02/06 12:55:15;;;;;;;41.15;15.05;;;3.90;99.90;;;;;;15130665;23;20022;-37
2023/02/06 13:01:30;;;;;;;39.22;13.68;;;3.80;99.90;;;;;;15129743;23;20037;-36
2023/02/06 13:07:39;;;;;;;41.63;12.05;;;3.90;99.90;;;;;;15127317;23;20033;-36
2023/02/06 13:13:59;;;;;;;38.85;13.48;;;3.80;99.90;;;;;;15127714;23;20429;-37
2023/02/06 13:20:12;;;;;;;42.95;12.60;;;3.90;99.90;;;;;;15126749;23;20053;-36
2023/02/06 13:26:15;;;;;;;39.60;12.93;;;4.00;99.90;;;;;;15126125;23;20027;-36
2023/02/06 13:32:17;;;;;;;51.35;14.20;;;4.00;99.90;;;;;;15128775;23;20026;-37
2023/02/06 13:38:22;;;;;;;39.65;12.43;;;4.00;99.90;;;;;;15121700;23;20149;-36
2023/02/06 13:44:29;;;;;;;46.45;12.40;;;3.90;99.90;;;;;;15124064;23;20033;-37
2023/02/06 13:50:47;;;;;;;34.25;9.95;;;3.90;99.90;;;;;;15127803;23;20019;-36
2023/02/06 13:57:13;;;;;;;38.90;10.30;;;3.90;99.90;;;;;;15126221;23;20325;-37
2023/02/06 14:03:28;;;;;;;31.52;9.00;;;3.80;99.90;;;;;;15121629;23;20033;-36
2023/02/06 14:09:57;;;;;;;25.58;7.18;;;3.70;99.90;;;;;;15102541;23;20451;-37
2023/02/06 14:16:27;;;;;;;27.67;7.03;;;3.80;99.90;;;;;;15123261;23;20026;-37
2023/02/06 14:22:33;;;;;;;25.55;6.93;;;3.80;99.90;;;;;;15096079;23;20033;-36
2023/02/06 14:28:53;;;;;;;;;;;3.70;99.90;;;;;;15124143;23;20768;-37
2023/02/06 14:35:10;;;;;;;24.25;6.00;;;3.60;99.90;;;;;;15123759;23;20374;-37
2023/02/06 14:41:14;;;;;;;21.00;5.38;;;3.60;99.90;;;;;;15122404;23;20518;-37
2023/02/06 14:47:22;;;;;;;25.98;6.28;;;3.60;99.90;;;;;;15123769;23;20024;-37
2023/02/06 14:53:31;;;;;;;22.25;6.25;;;3.60;99.90;;;;;;15124305;23;20429;-36
2023/02/06 14:59:33;;;;;;;15.70;5.32;;;3.60;99.90;;;;;;15096064;23;20030;-37
2023/02/06 15:05:35;;;;;;;24.92;7.47;;;3.70;99.90;;;;;;15125077;23;20396;-37
2023/02/06 15:11:37;;;;;;;29.58;7.03;;;3.70;99.90;;;;;;15118723;23;20162;-37
2023/02/06 15:17:40;;;;;;;8.40;3.83;;;3.80;99.90;;;;;;15120948;23;20343;-37
2023/02/06 15:23:47;;;;;;;16.52;5.63;;;4.10;99.90;;;;;;15072544;23;1098500;-36
2023/02/06 15:29:49;;;;;;;13.15;3.63;;;4.20;99.90;;;;;;15122295;23;20019;-36
2023/02/06 15:35:54;;;;;;;19.63;6.13;;;4.40;99.90;;;;;;15118888;23;20083;-36
2023/02/06 15:41:56;;;;;;;25.25;7.80;;;4.50;99.90;;;;;;15124491;23;20460;-36
2023/02/06 15:48:00;;;;;;;25.48;6.93;;;4.30;99.90;;;;;;15119562;23;20058;-37
2023/02/06 15:54:23;;;;;;;20.25;6.20;;;4.10;99.90;;;;;;15129653;23;20054;-37
2023/02/06 16:00:29;;;;;;;26.00;7.15;;;3.90;99.90;;;;;;15126210;23;20023;-37
2023/02/06 16:06:31;;;;;;;26.30;7.32;;;3.70;99.90;;;;;;15133087;23;20022;-37
2023/02/06 16:12:36;;;;;;;31.80;9.10;;;3.60;99.90;;;;;;15122786;23;20030;-36
2023/02/06 16:18:39;;;;;;;34.78;9.07;;;3.40;99.90;;;;;;15122092;23;20099;-36
2023/02/06 16:24:41;;;;;;;29.38;8.48;;;3.30;99.90;;;;;;15125738;23;20030;-37
2023/02/06 16:30:57;;;;;;;21.52;8.60;;;3.20;99.90;;;;;;15131306;23;20049;-36
2023/02/06 16:36:59;;;;;;;24.17;7.53;;;3.00;99.90;;;;;;15127852;23;20019;-36
2023/02/06 16:43:01;;;;;;;17.10;6.88;;;2.80;99.90;;;;;;15129789;23;20030;-37
2023/02/06 16:49:11;;;;;;;26.85;7.50;;;2.60;99.90;;;;;;15131261;23;20022;-37
2023/02/06 16:55:19;;;;;;;20.08;7.55;;;2.40;99.90;;;;;;15124013;23;20109;-36
2023/02/06 17:01:27;;;;;;;18.73;6.80;;;2.30;99.90;;;;;;15131123;23;20034;-37
2023/02/06 17:07:31;;;;;;;19.48;7.80;;;2.20;99.90;;;;;;15130944;23;20049;-37
2023/02/06 17:13:33;;;;;;;20.90;7.57;;;2.00;99.90;;;;;;15125975;23;20529;-37
2023/02/06 17:19:35;;;;;;;17.88;7.03;;;1.90;99.90;;;;;;15124659;23;20114;-36
2023/02/06 17:25:39;;;;;;;21.33;7.53;;;1.80;99.90;;;;;;15131166;23;20038;-36
2023/02/06 17:31:41;;;;;;;17.97;6.30;;;1.70;99.90;;;;;;15104846;23;20019;-36
2023/02/06 17:37:43;;;;;;;16.10;7.22;;;1.60;99.90;;;;;;15099923;23;20057;-36
2023/02/06 17:43:45;;;;;;;24.88;8.15;;;1.50;99.90;;;;;;15129150;23;20067;-37
2023/02/06 17:49:47;;;;;;;24.88;6.72;;;1.40;99.90;;;;;;15125463;23;20101;-37
2023/02/06 17:55:49;;;;;;;15.95;7.07;;;1.40;99.90;;;;;;15127715;23;20026;-37
2023/02/06 18:01:51;;;;;;;16.80;6.93;;;1.30;99.90;;;;;;15127685;23;20146;-36
2023/02/06 18:07:54;;;;;;;17.30;7.10;;;1.30;99.90;;;;;;15127571;23;20539;-36
2023/02/06 18:13:56;;;;;;;24.67;8.50;;;1.30;99.90;;;;;;15123258;23;20038;-36
2023/02/06 18:19:58;;;;;;;24.73;10.63;;;1.30;99.90;;;;;;15113742;23;20054;-35
2023/02/06 18:26:02;;;;;;;23.23;10.27;;;1.30;99.90;;;;;;15126298;23;20101;-36
2023/02/06 18:32:04;;;;;;;23.47;10.13;;;1.10;99.90;;;;;;15122724;23;20023;-36
2023/02/06 18:38:08;;;;;;;17.92;9.63;;;1.00;99.90;;;;;;15124710;23;20085;-36
2023/02/06 18:44:10;;;;;;;20.45;9.60;;;0.90;99.90;;;;;;15125350;23;20493;-36
2023/02/06 18:50:12;;;;;;;17.92;9.57;;;0.80;99.90;;;;;;15124814;23;20062;-36
2023/02/06 18:56:15;;;;;;;17.83;9.65;;;0.80;99.90;;;;;;15126600;23;20062;-36
2023/02/06 19:02:17;;;;;;;16.20;8.20;;;0.60;99.90;;;;;;15123425;23;20027;-36
2023/02/06 19:08:19;;;;;;;21.27;9.65;;;0.60;99.90;;;;;;15127057;23;20022;-36
2023/02/06 19:14:24;;;;;;;19.35;8.45;;;0.50;99.90;;;;;;15125288;23;20101;-36
2023/02/06 19:20:26;;;;;;;11.82;6.95;;;0.50;99.90;;;;;;15121066;23;20447;-36
2023/02/06 19:26:28;;;;;;;24.15;8.18;;;0.50;99.90;;;;;;15125015;23;20036;-36
2023/02/06 19:32:31;;;;;;;17.70;8.50;;;0.30;99.90;;;;;;15126854;23;20063;-36
2023/02/06 19:38:33;;;;;;;20.67;9.57;;;0.30;99.90;;;;;;15131620;23;20130;-36
2023/02/06 19:44:36;;;;;;;18.17;9.23;;;0.20;99.90;;;;;;15132145;23;20030;-36
2023/02/06 19:50:39;;;;;;;18.02;8.70;;;0.20;99.90;;;;;;15131333;23;20030;-36
2023/02/06 19:56:43;;;;;;;15.05;8.60;;;0.10;99.90;;;;;;15124761;23;20046;-36
2023/02/06 20:02:45;;;;;;;16.23;8.77;;;0.10;99.90;;;;;;15100177;23;20150;-35
2023/02/06 20:08:47;;;;;;;19.60;8.55;;;0.00;99.90;;;;;;15130219;23;20441;-36
2023/02/06 20:14:49;;;;;;;17.02;9.38;;;0.00;99.90;;;;;;15128031;23;20030;-35
2023/02/06 20:20:51;;;;;;;19.73;8.90;;;-0.20;99.90;;;;;;15125090;23;20032;-36
2023/02/06 20:26:56;;;;;;;17.52;9.00;;;-0.40;99.90;;;;;;15124489;23;20023;-36
2023/02/06 20:32:58;;;;;;;18.63;8.88;;;-0.40;99.90;;;;;;15127193;23;20157;-36
2023/02/06 20:39:01;;;;;;;18.73;9.40;;;-0.40;99.90;;;;;;15131218;23;20033;-36
2023/02/06 20:45:03;;;;;;;16.77;9.00;;;-0.40;99.90;;;;;;15126148;23;20046;-36
2023/02/06 20:51:05;;;;;;;19.17;10.88;;;-0.40;99.90;;;;;;15130613;23;20019;-36
2023/02/06 20:57:06;;;;;;;20.00;10.30;;;-0.60;99.90;;;;;;15126580;23;20028;-36
2023/02/06 21:03:08;;;;;;;25.30;10.90;;;-0.70;99.90;;;;;;15127878;23;20134;-36
2023/02/06 21:09:10;;;;;;;21.48;10.90;;;-0.70;99.90;;;;;;15128945;23;20339;-36
2023/02/06 21:15:12;;;;;;;22.88;11.13;;;-0.80;99.90;;;;;;15119809;23;20030;-36
2023/02/06 21:21:14;;;;;;;25.15;11.68;;;-0.70;99.90;;;;;;15123224;23;20066;-36
2023/02/06 21:27:16;;;;;;;23.52;12.52;;;-0.70;99.90;;;;;;15123842;23;20479;-36
2023/02/06 21:33:18;;;;;;;24.17;11.55;;;-0.60;99.90;;;;;;15102610;23;20452;-35
2023/02/06 21:39:23;;;;;;;21.52;11.05;;;-0.60;99.90;;;;;;15124345;23;20026;-36
2023/02/06 21:45:25;;;;;;;23.13;10.30;;;-0.70;99.90;;;;;;15125235;23;20030;-36
2023/02/06 21:51:27;;;;;;;21.35;10.00;;;-0.80;99.90;;;;;;15130001;23;20033;-36
2023/02/06 21:57:30;;;;;;;17.70;9.55;;;-0.80;99.90;;;;;;15101823;23;20105;-35
2023/02/06 22:03:33;;;;;;;15.18;8.60;;;-0.90;99.90;;;;;;15126237;23;20037;-36
2023/02/06 22:09:34;;;;;;;16.45;8.90;;;-1.10;99.90;;;;;;15130647;23;20101;-36
2023/02/06 22:15:36;;;;;;;21.75;9.70;;;-1.00;99.90;;;;;;15122260;23;20101;-36
2023/02/06 22:21:39;;;;;;;17.23;9.10;;;-1.10;99.90;;;;;;15122891;23;20019;-36
2023/02/06 22:27:42;;;;;;;17.48;9.40;;;-1.30;99.90;;;;;;15129044;23;20452;-36
2023/02/06 22:33:44;;;;;;;17.98;9.85;;;-1.40;99.90;;;;;;15125516;23;20223;-36
2023/02/06 22:39:46;;;;;;;17.70;9.90;;;-1.30;99.90;;;;;;15118948;23;20034;-36
2023/02/06 22:45:48;;;;;;;21.00;9.30;;;-1.20;99.90;;;;;;15121872;23;20531;-36
2023/02/06 22:51:50;;;;;;;21.38;10.00;;;-1.20;99.90;;;;;;15128599;23;20108;-36
2023/02/06 22:57:52;;;;;;;19.27;10.70;;;-1.20;99.90;;;;;;15102092;23;20097;-35
2023/02/06 23:03:54;;;;;;;22.55;10.52;;;-1.30;99.90;;;;;;15121165;23;20472;-35
2023/02/06 23:09:56;;;;;;;19.05;11.27;;;-1.40;99.90;;;;;;15128725;23;20026;-35
2023/02/06 23:15:58;;;;;;;20.60;10.75;;;-1.50;99.90;;;;;;15097641;23;20105;-36
2023/02/06 23:22:00;;;;;;;23.95;10.35;;;-1.60;99.90;;;;;;15098256;23;20030;-36
2023/02/06 23:28:02;;;;;;;21.27;11.32;;;-1.50;99.90;;;;;;15128031;23;20105;-35
2023/02/06 23:34:04;;;;;;;19.33;10.98;;;-1.70;99.90;;;;;;15123760;23;20359;-35
2023/02/06 23:40:07;;;;;;;18.02;10.18;;;-1.50;99.90;;;;;;15117026;23;20018;-36
2023/02/06 23:46:10;;;;;;;20.20;10.63;;;-1.60;99.90;;;;;;15036448;23;20018;-36
2023/02/06 23:52:13;;;;;;;20.20;10.97;;;-1.60;99.90;;;;;;15128411;23;20019;-36
2023/02/06 23:58:15;;;;;;;18.73;10.70;;;-1.80;99.90;;;;;;15126870;23;20249;-36
